createdAt,value
2023-04-23T00:00:30.043Z,32.03
2023-04-23T00:01:30.091Z,31.56
2023-04-23T00:02:30.254Z,30.61
2023-04-23T00:03:30.402Z,29.71
2023-04-23T00:04:30.344Z,28.38
2023-04-23T00:05:30.429Z,28.65
2023-04-23T00:06:30.433Z,27.65
2023-04-23T00:07:30.484Z,28.84
2023-04-23T00:08:30.507Z,27.87
2023-04-23T00:09:30.568Z,32.39
2023-04-23T00:10:30.632Z,33.25
2023-04-23T00:11:30.743Z,29.89
2023-04-23T00:12:30.762Z,30.54
2023-04-23T00:13:30.842Z,33.47
2023-04-23T00:14:31.824Z,32.59
2023-04-23T00:15:30.973Z,30.35
2023-04-23T00:16:31.054Z,35.28
2023-04-23T00:17:31.124Z,35.64
2023-04-23T00:18:31.160Z,34.22
2023-04-23T00:19:31.211Z,32.08
2023-04-23T00:20:31.251Z,36.14
2023-04-23T00:21:31.311Z,36.04
2023-04-23T00:22:31.457Z,37.62
2023-04-23T00:23:31.471Z,38.84
2023-04-23T00:24:31.532Z,34.66
2023-04-23T00:25:31.605Z,40.27
2023-04-23T00:26:31.613Z,37.48
2023-04-23T00:27:31.695Z,37.55
2023-04-23T00:28:31.711Z,37.59
2023-04-23T00:29:31.808Z,40.27
2023-04-23T00:30:31.852Z,39.10
2023-04-23T00:31:31.939Z,38.22
2023-04-23T00:32:32.091Z,41.42
2023-04-23T00:33:32.061Z,42.48
2023-04-23T00:34:32.128Z,38.26
2023-04-23T00:35:32.202Z,39.80
2023-04-23T00:36:32.235Z,40.13
2023-04-23T00:37:32.311Z,41.83
2023-04-23T00:38:32.385Z,39.25
2023-04-23T00:39:32.436Z,38.90
2023-04-23T00:40:32.491Z,39.58
2023-04-23T00:41:32.557Z,41.60
2023-04-23T00:42:32.642Z,38.96
2023-04-23T00:43:32.704Z,39.97
2023-04-23T00:44:32.724Z,41.45
2023-04-23T00:45:32.849Z,38.87
2023-04-23T00:46:32.874Z,36.78
2023-04-23T00:47:32.990Z,40.53
2023-04-23T00:48:32.987Z,37.58
2023-04-23T00:49:33.051Z,41.76
2023-04-23T00:50:33.102Z,38.96
2023-04-23T00:51:33.149Z,38.99
2023-04-23T00:52:33.236Z,41.62
2023-04-23T00:53:33.262Z,40.90
2023-04-23T00:54:33.326Z,41.09
2023-04-23T00:55:33.370Z,42.14
2023-04-23T00:56:33.408Z,41.11
2023-04-23T00:57:33.482Z,39.68
2023-04-23T00:58:33.532Z,39.80
2023-04-23T00:59:33.568Z,42.83
2023-04-23T01:00:33.585Z,36.72
2023-04-23T01:01:33.705Z,37.33
2023-04-23T01:02:33.834Z,38.84
2023-04-23T01:03:33.813Z,40.14
2023-04-23T01:04:33.759Z,38.66
2023-04-23T01:05:33.850Z,38.00
2023-04-23T01:06:33.929Z,39.28
2023-04-23T01:07:33.953Z,41.36
2023-04-23T01:08:33.986Z,43.53
2023-04-23T01:09:34.069Z,38.27
2023-04-23T01:10:34.112Z,40.63
2023-04-23T01:11:34.167Z,40.41
2023-04-23T01:12:34.214Z,39.73
2023-04-23T01:13:34.274Z,39.87
2023-04-23T01:14:34.311Z,39.02
2023-04-23T01:15:34.370Z,39.26
2023-04-23T01:16:34.431Z,39.41
2023-04-23T01:17:34.600Z,40.31
2023-04-23T01:18:34.509Z,39.21
2023-04-23T01:19:34.563Z,39.16
2023-04-23T01:20:34.623Z,39.98
2023-04-23T01:21:34.731Z,39.50
2023-04-23T01:22:34.781Z,39.49
2023-04-23T01:23:34.806Z,39.55
2023-04-23T01:24:34.859Z,38.99
2023-04-23T01:25:34.898Z,40.89
2023-04-23T01:26:34.915Z,39.24
2023-04-23T01:27:34.978Z,37.58
2023-04-23T01:28:34.994Z,37.88
2023-04-23T01:29:35.025Z,37.87
2023-04-23T01:30:35.108Z,38.07
2023-04-23T01:31:35.084Z,38.99
2023-04-23T01:32:35.197Z,39.75
2023-04-23T01:33:35.206Z,37.11
2023-04-23T01:34:35.233Z,36.36
2023-04-23T01:35:35.272Z,37.14
2023-04-23T01:36:35.353Z,40.89
2023-04-23T01:37:35.376Z,35.71
2023-04-23T01:38:35.469Z,38.27
2023-04-23T01:39:35.519Z,35.36
2023-04-23T01:40:35.538Z,39.50
2023-04-23T01:41:35.628Z,37.24
2023-04-23T01:42:35.698Z,38.40
2023-04-23T01:43:35.740Z,36.69
2023-04-23T01:44:35.739Z,38.06
2023-04-23T01:45:35.792Z,35.68
2023-04-23T01:46:35.844Z,38.68
2023-04-23T01:47:35.947Z,38.02
2023-04-23T01:48:35.882Z,36.01
2023-04-23T01:49:36.003Z,37.41
2023-04-23T01:50:36.012Z,37.24
2023-04-23T01:51:36.042Z,38.15
2023-04-23T01:52:36.101Z,37.28
2023-04-23T01:53:36.123Z,37.59
2023-04-23T01:54:36.145Z,35.15
2023-04-23T01:55:36.179Z,38.96
2023-04-23T01:56:36.217Z,35.76
2023-04-23T01:57:36.237Z,36.84
2023-04-23T01:58:36.257Z,38.10
2023-04-23T01:59:36.254Z,39.39
2023-04-23T02:00:36.308Z,35.92
2023-04-23T02:01:36.323Z,34.41
2023-04-23T02:02:36.486Z,35.89
2023-04-23T02:03:36.581Z,34.81
2023-04-23T02:04:36.449Z,35.21
2023-04-23T02:05:36.440Z,36.33
2023-04-23T02:06:36.449Z,32.03
2023-04-23T02:07:36.518Z,33.86
2023-04-23T02:08:36.515Z,31.64
2023-04-23T02:09:36.534Z,32.10
2023-04-23T02:10:36.597Z,34.89
2023-04-23T02:11:36.665Z,36.65
2023-04-23T02:12:36.657Z,32.79
2023-04-23T02:13:36.710Z,36.07
2023-04-23T02:14:36.724Z,35.79
2023-04-23T02:15:36.756Z,36.37
2023-04-23T02:16:36.767Z,31.19
2023-04-23T02:17:36.926Z,35.27
2023-04-23T02:18:36.826Z,31.99
2023-04-23T02:19:36.815Z,34.20
2023-04-23T02:20:36.883Z,33.84
2023-04-23T02:21:36.862Z,33.51
2023-04-23T02:22:36.886Z,33.41
2023-04-23T02:23:36.884Z,33.88
2023-04-23T02:24:36.970Z,31.26
2023-04-23T02:25:36.952Z,31.77
2023-04-23T02:26:36.990Z,36.55
2023-04-23T02:27:37.017Z,32.24
2023-04-23T02:28:37.027Z,31.58
2023-04-23T02:29:37.048Z,29.80
2023-04-23T02:30:37.097Z,34.84
2023-04-23T02:31:37.176Z,35.13
2023-04-23T02:32:37.203Z,30.12
2023-04-23T02:33:37.140Z,31.10
2023-04-23T02:34:37.164Z,33.17
2023-04-23T02:35:37.218Z,34.30
2023-04-23T02:36:37.245Z,35.37
2023-04-23T02:37:37.317Z,30.23
2023-04-23T02:38:37.290Z,30.66
2023-04-23T02:39:37.308Z,33.51
2023-04-23T02:40:38.950Z,32.80
2023-04-23T02:41:37.317Z,30.82
2023-04-23T02:42:37.350Z,30.67
2023-04-23T02:43:37.342Z,34.23
2023-04-23T02:44:37.345Z,32.88
2023-04-23T02:45:37.332Z,32.66
2023-04-23T02:46:37.428Z,37.16
2023-04-23T02:47:37.421Z,35.03
2023-04-23T02:48:37.354Z,32.14
2023-04-23T02:49:37.386Z,32.66
2023-04-23T02:50:37.385Z,30.29
2023-04-23T02:51:37.418Z,33.17
2023-04-23T02:52:37.456Z,33.62
2023-04-23T02:53:37.426Z,30.65
2023-04-23T02:54:37.409Z,35.07
2023-04-23T02:55:37.386Z,27.84
2023-04-23T02:56:37.422Z,33.86
2023-04-23T02:57:37.415Z,32.05
2023-04-23T02:58:37.424Z,32.56
2023-04-23T02:59:37.406Z,31.90
2023-04-23T03:00:37.523Z,31.58
2023-04-23T03:01:37.436Z,32.41
2023-04-23T03:02:37.529Z,29.88
2023-04-23T03:03:37.747Z,28.84
2023-04-23T03:04:37.425Z,31.04
2023-04-23T03:05:37.453Z,33.02
2023-04-23T03:06:37.463Z,30.86
2023-04-23T03:07:37.480Z,31.80
2023-04-23T03:08:37.457Z,33.24
2023-04-23T03:09:37.480Z,30.89
2023-04-23T03:10:37.482Z,27.57
2023-04-23T03:11:37.484Z,32.70
2023-04-23T03:12:37.512Z,30.50
2023-04-23T03:13:37.525Z,33.14
2023-04-23T03:14:37.508Z,29.93
2023-04-23T03:15:37.506Z,28.42
2023-04-23T03:16:37.564Z,31.07
2023-04-23T03:17:37.511Z,29.75
2023-04-23T03:18:37.538Z,31.85
2023-04-23T03:19:37.507Z,28.88
2023-04-23T03:20:37.531Z,33.84
2023-04-23T03:21:37.506Z,30.26
2023-04-23T03:22:37.525Z,29.12
2023-04-23T03:23:37.524Z,29.72
2023-04-23T03:24:37.514Z,29.57
2023-04-23T03:25:37.502Z,29.93
2023-04-23T03:26:37.488Z,26.93
2023-04-23T03:27:39.034Z,30.72
2023-04-23T03:28:37.722Z,30.07
2023-04-23T03:29:37.732Z,30.60
2023-04-23T03:30:37.774Z,27.82
2023-04-23T03:31:37.792Z,28.87
2023-04-23T03:32:37.747Z,30.16
2023-04-23T03:33:37.724Z,30.96
2023-04-23T03:34:37.726Z,31.87
2023-04-23T03:35:37.746Z,32.14
2023-04-23T03:36:37.744Z,27.63
2023-04-23T03:37:37.709Z,29.76
2023-04-23T03:38:37.682Z,28.76
2023-04-23T03:39:37.676Z,26.65
2023-04-23T03:40:37.721Z,30.21
2023-04-23T03:41:37.687Z,27.43
2023-04-23T03:42:37.714Z,27.42
2023-04-23T03:43:37.682Z,26.47
2023-04-23T03:44:37.688Z,27.40
2023-04-23T03:45:37.701Z,26.89
2023-04-23T03:46:37.692Z,29.51
2023-04-23T03:47:37.763Z,25.53
2023-04-23T03:48:37.686Z,30.37
2023-04-23T03:49:37.634Z,30.74
2023-04-23T03:50:37.656Z,30.16
2023-04-23T03:51:37.656Z,28.60
2023-04-23T03:52:37.654Z,28.24
2023-04-23T03:53:37.659Z,27.92
2023-04-23T03:54:37.702Z,26.99
2023-04-23T03:55:37.621Z,29.50
2023-04-23T03:56:37.656Z,30.58
2023-04-23T03:57:37.648Z,27.75
2023-04-23T03:58:37.652Z,30.19
2023-04-23T03:59:37.609Z,29.42
2023-04-23T04:00:37.616Z,25.49
2023-04-23T04:01:37.629Z,31.73
2023-04-23T04:02:37.805Z,30.43
2023-04-23T04:03:37.755Z,29.02
2023-04-23T04:04:37.679Z,33.59
2023-04-23T04:05:37.634Z,32.77
2023-04-23T04:06:37.567Z,27.87
2023-04-23T04:07:37.590Z,31.39
2023-04-23T04:08:37.624Z,29.04
2023-04-23T04:09:37.585Z,30.03
2023-04-23T04:10:37.560Z,31.53
2023-04-23T04:11:37.559Z,28.00
2023-04-23T04:12:37.554Z,29.19
2023-04-23T04:13:37.609Z,29.66
2023-04-23T04:14:37.553Z,31.61
2023-04-23T04:15:37.559Z,30.01
2023-04-23T04:16:37.588Z,27.67
2023-04-23T04:17:37.619Z,28.71
2023-04-23T04:18:37.575Z,28.30
2023-04-23T04:19:37.543Z,30.95
2023-04-23T04:20:37.561Z,29.84
2023-04-23T04:21:37.538Z,31.50
2023-04-23T04:22:37.573Z,28.97
2023-04-23T04:23:37.545Z,30.53
2023-04-23T04:24:37.511Z,27.61
2023-04-23T04:25:37.541Z,29.92
2023-04-23T04:26:37.536Z,29.68
2023-04-23T04:27:37.605Z,28.79
2023-04-23T04:28:37.546Z,31.33
2023-04-23T04:29:37.559Z,28.21
2023-04-23T04:30:37.525Z,27.80
2023-04-23T04:31:37.522Z,29.75
2023-04-23T04:32:37.569Z,29.26
2023-04-23T04:33:37.517Z,32.57
2023-04-23T04:34:37.511Z,29.45
2023-04-23T04:35:37.508Z,32.18
2023-04-23T04:36:37.506Z,25.39
2023-04-23T04:37:37.488Z,30.20
2023-04-23T04:38:37.486Z,27.28
2023-04-23T04:39:37.489Z,29.81
2023-04-23T04:40:37.509Z,31.66
2023-04-23T04:41:37.507Z,29.10
2023-04-23T04:42:37.515Z,27.89
2023-04-23T04:43:37.483Z,26.56
2023-04-23T04:44:37.765Z,27.15
2023-04-23T04:45:37.475Z,30.25
2023-04-23T04:46:37.542Z,28.19
2023-04-23T04:47:37.492Z,27.43
2023-04-23T04:48:37.476Z,29.10
2023-04-23T04:49:37.473Z,27.39
2023-04-23T04:50:37.469Z,29.46
2023-04-23T04:51:37.433Z,29.23
2023-04-23T04:52:37.420Z,28.90
2023-04-23T04:53:37.424Z,25.48
2023-04-23T04:54:37.453Z,29.02
2023-04-23T04:55:37.440Z,28.15
2023-04-23T04:56:37.426Z,27.67
2023-04-23T04:57:37.419Z,27.81
2023-04-23T04:58:37.448Z,28.08
2023-04-23T04:59:37.412Z,30.59
2023-04-23T05:00:37.442Z,26.57
2023-04-23T05:01:37.558Z,26.83
2023-04-23T05:02:37.523Z,28.20
2023-04-23T05:03:37.574Z,29.10
2023-04-23T05:04:37.411Z,28.36
2023-04-23T05:05:37.424Z,29.18
2023-04-23T05:06:37.399Z,28.42
2023-04-23T05:07:37.399Z,29.84
2023-04-23T05:08:37.417Z,28.07
2023-04-23T05:09:37.432Z,25.30
2023-04-23T05:10:37.373Z,28.61
2023-04-23T05:11:37.355Z,29.19
2023-04-23T05:12:37.385Z,30.33
2023-04-23T05:13:37.350Z,29.85
2023-04-23T05:14:37.346Z,27.99
2023-04-23T05:15:37.333Z,26.41
2023-04-23T05:16:37.409Z,28.61
2023-04-23T05:17:37.365Z,29.34
2023-04-23T05:18:37.378Z,27.80
2023-04-23T05:19:37.340Z,27.22
2023-04-23T05:20:37.336Z,27.51
2023-04-23T05:21:37.344Z,27.89
2023-04-23T05:22:37.310Z,25.25
2023-04-23T05:23:37.372Z,30.10
2023-04-23T05:24:37.387Z,28.39
2023-04-23T05:25:37.344Z,28.34
2023-04-23T05:26:37.341Z,25.81
2023-04-23T05:27:37.357Z,32.75
2023-04-23T05:28:37.364Z,29.89
2023-04-23T05:29:37.324Z,30.03
2023-04-23T05:30:37.328Z,31.23
2023-04-23T05:31:37.406Z,32.05
2023-04-23T05:32:37.389Z,31.42
2023-04-23T05:33:48.685Z,31.26
2023-04-23T05:34:38.418Z,31.49
2023-04-23T05:35:37.327Z,31.76
2023-04-23T05:36:37.301Z,32.12
2023-04-23T05:37:37.313Z,31.79
2023-04-23T05:38:37.297Z,28.35
2023-04-23T05:39:37.280Z,30.74
2023-04-23T05:40:37.301Z,32.17
2023-04-23T05:41:37.295Z,32.16
2023-04-23T05:42:37.243Z,31.00
2023-04-23T05:43:37.924Z,31.02
2023-04-23T05:44:37.229Z,30.96
2023-04-23T05:45:37.268Z,29.77
2023-04-23T05:46:37.250Z,31.62
2023-04-23T05:47:37.518Z,32.76
2023-04-23T05:48:37.210Z,30.44
2023-04-23T05:49:37.184Z,26.01
2023-04-23T05:50:37.215Z,30.98
2023-04-23T05:51:37.170Z,29.63
2023-04-23T05:52:37.179Z,30.76
2023-04-23T05:53:37.186Z,32.11
2023-04-23T05:54:37.160Z,29.00
2023-04-23T05:55:37.143Z,28.19
2023-04-23T05:56:37.174Z,28.35
2023-04-23T05:57:37.171Z,29.33
2023-04-23T05:58:37.164Z,31.79
2023-04-23T05:59:37.164Z,29.28
2023-04-23T06:00:37.130Z,28.66
2023-04-23T06:01:37.130Z,27.08
2023-04-23T06:02:37.186Z,27.65
2023-04-23T06:03:37.262Z,29.71
2023-04-23T06:04:37.383Z,29.95
2023-04-23T06:05:37.153Z,28.57
2023-04-23T06:06:37.067Z,30.88
2023-04-23T06:07:37.079Z,30.56
2023-04-23T06:08:37.094Z,27.97
2023-04-23T06:09:37.070Z,26.66
2023-04-23T06:10:37.088Z,29.89
2023-04-23T06:11:37.073Z,29.00
2023-04-23T06:12:37.046Z,29.59
2023-04-23T06:13:37.067Z,28.33
2023-04-23T06:14:37.053Z,28.51
2023-04-23T06:15:37.031Z,30.64
2023-04-23T06:16:37.000Z,30.70
2023-04-23T06:17:37.170Z,29.06
2023-04-23T06:18:37.016Z,28.41
2023-04-23T06:19:36.993Z,30.60
2023-04-23T06:20:37.003Z,30.99
2023-04-23T06:21:36.986Z,28.46
2023-04-23T06:22:37.047Z,27.14
2023-04-23T06:23:36.990Z,30.20
2023-04-23T06:24:37.035Z,30.38
2023-04-23T06:25:36.976Z,32.31
2023-04-23T06:26:36.954Z,26.51
2023-04-23T06:27:36.959Z,29.48
2023-04-23T06:28:36.952Z,25.00
2023-04-23T06:29:36.925Z,30.54
2023-04-23T06:30:36.945Z,29.85
2023-04-23T06:31:36.934Z,29.74
2023-04-23T06:32:36.932Z,28.34
2023-04-23T06:33:36.896Z,30.43
2023-04-23T06:34:44.004Z,31.27
2023-04-23T06:35:37.858Z,31.53
2023-04-23T06:36:36.900Z,31.66
2023-04-23T06:37:36.874Z,31.69
2023-04-23T06:38:36.876Z,30.86
2023-04-23T06:39:36.836Z,28.38
2023-04-23T06:40:36.856Z,27.92
2023-04-23T06:41:36.834Z,30.19
2023-04-23T06:42:36.819Z,31.30
2023-04-23T06:43:36.960Z,29.88
2023-04-23T06:44:36.850Z,32.09
2023-04-23T06:45:36.828Z,28.13
2023-04-23T06:46:36.845Z,31.57
2023-04-23T06:47:36.860Z,29.95
2023-04-23T06:48:36.776Z,28.42
2023-04-23T06:49:36.774Z,30.97
2023-04-23T06:50:36.782Z,29.81
2023-04-23T06:51:36.758Z,31.64
2023-04-23T06:52:36.742Z,30.60
2023-04-23T06:53:36.767Z,32.73
2023-04-23T06:54:36.773Z,29.75
2023-04-23T06:55:36.734Z,31.37
2023-04-23T06:56:36.766Z,31.21
2023-04-23T06:57:36.728Z,30.92
2023-04-23T06:58:36.704Z,32.10
2023-04-23T06:59:36.734Z,30.34
2023-04-23T07:00:36.720Z,28.60
2023-04-23T07:01:36.714Z,31.76
2023-04-23T07:02:37.021Z,31.58
2023-04-23T07:03:36.713Z,29.78
2023-04-23T07:04:36.819Z,30.53
2023-04-23T07:05:36.662Z,32.50
2023-04-23T07:06:36.692Z,31.68
2023-04-23T07:07:36.659Z,32.01
2023-04-23T07:08:36.645Z,30.19
2023-04-23T07:09:36.660Z,30.65
2023-04-23T07:10:36.656Z,31.18
2023-04-23T07:11:36.627Z,32.21
2023-04-23T07:12:36.801Z,29.75
2023-04-23T07:13:36.629Z,31.00
2023-04-23T07:14:36.628Z,30.00
2023-04-23T07:15:36.629Z,33.24
2023-04-23T07:16:36.664Z,28.17
2023-04-23T07:17:36.664Z,30.80
2023-04-23T07:18:36.637Z,30.69
2023-04-23T07:19:36.634Z,31.51
2023-04-23T07:20:36.645Z,31.70
2023-04-23T07:21:36.656Z,32.98
2023-04-23T07:22:36.688Z,32.89
2023-04-23T07:23:36.682Z,32.74
2023-04-23T07:24:36.710Z,29.96
2023-04-23T07:25:36.750Z,27.40
2023-04-23T07:26:36.778Z,29.81
2023-04-23T07:27:36.801Z,29.87
2023-04-23T07:28:36.880Z,30.16
2023-04-23T07:29:36.911Z,28.45
2023-04-23T07:30:36.949Z,30.77
2023-04-23T07:31:37.044Z,27.62
2023-04-23T07:32:37.090Z,27.73
2023-04-23T07:33:37.105Z,28.64
2023-04-23T07:34:38.064Z,31.11
2023-04-23T07:35:37.197Z,27.76
2023-04-23T07:36:37.225Z,28.63
2023-04-23T07:37:37.268Z,28.74
2023-04-23T07:38:37.345Z,30.16
2023-04-23T07:39:37.394Z,26.78
2023-04-23T07:40:37.709Z,27.75
2023-04-23T07:41:37.512Z,26.60
2023-04-23T07:42:37.575Z,26.35
2023-04-23T07:43:37.628Z,27.86
2023-04-23T07:44:37.672Z,26.37
2023-04-23T07:45:37.783Z,28.15
2023-04-23T07:46:37.810Z,28.40
2023-04-23T07:47:37.921Z,28.37
2023-04-23T07:48:37.928Z,25.47
2023-04-23T07:49:37.960Z,26.70
2023-04-23T07:50:38.013Z,28.14
2023-04-23T07:51:38.089Z,30.08
2023-04-23T07:52:38.100Z,30.18
2023-04-23T07:53:38.191Z,29.97
2023-04-23T07:54:38.202Z,27.63
2023-04-23T07:55:38.298Z,28.29
2023-04-23T07:56:38.369Z,30.65
2023-04-23T07:57:38.391Z,28.51
2023-04-23T07:58:38.457Z,29.31
2023-04-23T07:59:38.535Z,29.13
2023-04-23T08:00:38.597Z,28.72
2023-04-23T08:01:38.624Z,31.02
2023-04-23T08:02:38.824Z,29.45
2023-04-23T08:03:38.935Z,29.53
2023-04-23T08:04:38.943Z,29.73
2023-04-23T08:05:39.047Z,33.04
2023-04-23T08:06:38.952Z,31.44
2023-04-23T08:07:39.002Z,28.73
2023-04-23T08:08:39.120Z,26.66
2023-04-23T08:09:39.953Z,29.80
2023-04-23T08:10:39.199Z,31.73
2023-04-23T08:11:39.263Z,28.52
2023-04-23T08:12:39.335Z,30.93
2023-04-23T08:13:39.408Z,28.70
2023-04-23T08:14:39.428Z,29.41
2023-04-23T08:15:39.483Z,27.46
2023-04-23T08:16:39.603Z,30.48
2023-04-23T08:17:39.668Z,30.90
2023-04-23T08:18:39.888Z,31.47
2023-04-23T08:19:39.950Z,31.75
2023-04-23T08:20:39.775Z,30.83
2023-04-23T08:21:39.870Z,30.79
2023-04-23T08:22:39.889Z,29.96
2023-04-23T08:23:39.984Z,31.93
2023-04-23T08:24:40.050Z,32.01
2023-04-23T08:25:40.090Z,31.98
2023-04-23T08:26:40.146Z,28.62
2023-04-23T08:27:40.250Z,29.45
2023-04-23T08:28:40.296Z,31.18
2023-04-23T08:29:40.546Z,30.41
2023-04-23T08:30:40.381Z,30.83
2023-04-23T08:31:40.549Z,29.18
2023-04-23T08:32:40.532Z,30.46
2023-04-23T08:33:40.574Z,31.11
2023-04-23T08:34:40.610Z,29.72
2023-04-23T08:35:40.693Z,30.26
2023-04-23T08:36:40.762Z,31.24
2023-04-23T08:37:40.836Z,31.43
2023-04-23T08:38:40.906Z,30.30
2023-04-23T08:39:40.977Z,31.75
2023-04-23T08:40:40.986Z,29.49
2023-04-23T08:41:41.072Z,34.67
2023-04-23T08:42:41.130Z,29.50
2023-04-23T08:43:41.156Z,32.02
2023-04-23T08:44:41.255Z,31.43
2023-04-23T08:45:41.295Z,31.24
2023-04-23T08:46:41.420Z,32.16
2023-04-23T08:47:41.505Z,32.15
2023-04-23T08:48:41.444Z,34.48
2023-04-23T08:49:41.631Z,33.06
2023-04-23T08:50:41.570Z,31.15
2023-04-23T08:51:41.631Z,33.41
2023-04-23T08:52:41.714Z,32.14
2023-04-23T08:53:41.744Z,30.68
2023-04-23T08:54:41.783Z,31.30
2023-04-23T08:55:41.858Z,30.92
2023-04-23T08:56:41.891Z,32.84
2023-04-23T08:57:41.929Z,33.09
2023-04-23T08:58:42.013Z,34.30
2023-04-23T08:59:42.326Z,30.33
2023-04-23T09:00:42.170Z,35.76
2023-04-23T09:01:42.180Z,31.04
2023-04-23T09:02:42.333Z,33.07
2023-04-23T09:03:42.304Z,31.02
2023-04-23T09:04:42.297Z,33.61
2023-04-23T09:05:42.344Z,34.11
2023-04-23T09:06:42.391Z,32.91
2023-04-23T09:07:42.452Z,29.89
2023-04-23T09:08:42.500Z,33.23
2023-04-23T09:09:42.848Z,33.23
2023-04-23T09:10:42.581Z,34.11
2023-04-23T09:11:42.623Z,34.77
2023-04-23T09:12:42.725Z,29.66
2023-04-23T09:13:42.733Z,33.21
2023-04-23T09:14:43.040Z,31.30
2023-04-23T09:15:42.839Z,33.59
2023-04-23T09:16:42.958Z,33.97
2023-04-23T09:17:42.975Z,34.00
2023-04-23T09:18:43.016Z,35.90
2023-04-23T09:19:43.421Z,34.15
2023-04-23T09:20:43.078Z,33.51
2023-04-23T09:21:43.126Z,32.78
2023-04-23T09:22:45.310Z,32.67
2023-04-23T09:23:43.173Z,34.65
2023-04-23T09:24:43.190Z,34.31
2023-04-23T09:25:43.130Z,35.58
2023-04-23T09:26:43.129Z,37.00
2023-04-23T09:27:43.109Z,36.53
2023-04-23T09:28:43.094Z,34.69
2023-04-23T09:29:43.270Z,36.63
2023-04-23T09:30:43.096Z,35.41
2023-04-23T09:31:43.122Z,35.78
2023-04-23T09:32:43.138Z,35.59
2023-04-23T09:33:43.073Z,36.27
2023-04-23T09:34:43.073Z,33.21
2023-04-23T09:35:43.033Z,37.23
2023-04-23T09:36:43.040Z,33.90
2023-04-23T09:37:43.080Z,36.43
2023-04-23T09:38:43.026Z,36.38
2023-04-23T09:39:43.386Z,35.31
2023-04-23T09:40:43.028Z,37.43
2023-04-23T09:41:43.015Z,37.69
2023-04-23T09:42:42.980Z,37.43
2023-04-23T09:43:43.037Z,36.31
2023-04-23T09:44:42.997Z,36.07
2023-04-23T09:45:42.993Z,33.92
2023-04-23T09:46:42.984Z,34.16
2023-04-23T09:47:43.011Z,37.06
2023-04-23T09:48:42.945Z,34.62
2023-04-23T09:49:43.131Z,39.88
2023-04-23T09:50:42.931Z,38.28
2023-04-23T09:51:42.931Z,37.68
2023-04-23T09:52:42.938Z,37.34
2023-04-23T09:53:42.933Z,32.77
2023-04-23T09:54:42.932Z,36.82
2023-04-23T09:55:42.954Z,38.76
2023-04-23T09:56:42.894Z,38.36
2023-04-23T09:57:42.885Z,39.68
2023-04-23T09:58:42.902Z,40.84
2023-04-23T09:59:48.876Z,38.94
2023-04-23T10:00:43.871Z,39.30
2023-04-23T10:01:42.943Z,39.45
2023-04-23T10:02:42.969Z,36.38
2023-04-23T10:03:43.035Z,40.14
2023-04-23T10:04:43.034Z,40.02
2023-04-23T10:05:59.558Z,38.67
2023-04-23T10:06:50.170Z,37.54
2023-04-23T10:07:43.805Z,39.13
2023-04-23T10:08:42.825Z,40.17
2023-04-23T10:09:43.181Z,40.17
2023-04-23T10:10:57.507Z,38.54
2023-04-23T10:11:43.784Z,38.95
2023-04-23T10:12:54.233Z,39.77
2023-04-23T10:13:43.774Z,38.91
2023-04-23T10:14:42.778Z,39.95
2023-04-23T10:15:42.772Z,36.01
2023-04-23T10:16:49.065Z,42.18
2023-04-23T10:17:43.764Z,39.15
2023-04-23T10:18:42.747Z,38.75
2023-04-23T10:19:43.117Z,40.71
2023-04-23T10:20:42.748Z,40.06
2023-04-23T10:21:53.311Z,40.12
2023-04-23T10:22:43.719Z,38.85
2023-04-23T10:23:42.719Z,39.87
2023-04-23T10:24:42.691Z,41.40
2023-04-23T10:25:42.695Z,41.32
2023-04-23T10:26:42.694Z,42.73
2023-04-23T10:27:51.882Z,37.78
2023-04-23T10:28:43.689Z,37.79
2023-04-23T10:29:43.023Z,38.45
2023-04-23T10:30:42.621Z,38.20
2023-04-23T10:31:42.793Z,32.99
2023-04-23T10:32:42.683Z,42.50
2023-04-23T10:33:55.477Z,33.00
2023-04-23T10:34:43.612Z,33.42
2023-04-23T10:35:42.638Z,33.78
2023-04-23T10:36:42.609Z,35.79
2023-04-23T10:37:42.576Z,36.81
2023-04-23T10:38:54.934Z,36.01
2023-04-23T10:39:43.588Z,33.44
2023-04-23T10:40:42.574Z,35.12
2023-04-23T10:41:42.571Z,36.16
2023-04-23T10:42:42.559Z,34.63
2023-04-23T10:43:42.552Z,42.08
2023-04-23T10:44:56.716Z,34.90
2023-04-23T10:45:43.528Z,35.42
2023-04-23T10:46:42.619Z,36.34
2023-04-23T10:47:42.572Z,35.70
2023-04-23T10:48:42.506Z,39.83
2023-04-23T10:49:42.740Z,38.38
2023-04-23T10:51:02.078Z,41.16
2023-04-23T10:52:42.481Z,41.48
2023-04-23T10:53:42.503Z,41.76
2023-04-23T10:54:42.470Z,43.16
2023-04-23T10:55:42.445Z,35.48
2023-04-23T10:56:42.463Z,35.91
2023-04-23T10:57:42.425Z,43.83
2023-04-23T10:58:42.453Z,38.88
2023-04-23T10:59:42.657Z,42.59
2023-04-23T11:00:42.443Z,38.62
2023-04-23T11:01:42.452Z,31.85
2023-04-23T11:02:42.508Z,30.00
2023-04-23T11:03:44.551Z,36.95
2023-04-23T11:04:42.725Z,37.15
2023-04-23T11:05:42.648Z,36.98
2023-04-23T11:06:42.639Z,37.60
2023-04-23T11:07:42.662Z,39.12
2023-04-23T11:08:42.653Z,37.76
2023-04-23T11:09:43.051Z,44.91
2023-04-23T11:10:42.673Z,38.18
2023-04-23T11:11:42.700Z,29.80
2023-04-23T11:12:42.719Z,39.36
2023-04-23T11:13:42.755Z,42.39
2023-04-23T11:14:42.764Z,44.57
2023-04-23T11:15:42.794Z,45.96
2023-04-23T11:16:42.903Z,47.44
2023-04-23T11:17:42.802Z,40.16
2023-04-23T11:18:42.797Z,46.89
2023-04-23T11:19:43.214Z,47.73
2023-04-23T11:20:42.873Z,38.07
2023-04-23T11:21:42.871Z,46.92
2023-04-23T11:22:42.893Z,35.80
2023-04-23T11:23:42.897Z,37.26
2023-04-23T11:24:43.290Z,38.65
2023-04-23T11:25:42.922Z,34.41
2023-04-23T11:26:42.928Z,38.91
2023-04-23T11:27:42.969Z,42.93
2023-04-23T11:28:42.957Z,47.61
2023-04-23T11:29:43.327Z,46.31
2023-04-23T11:30:43.015Z,44.06
2023-04-23T11:31:58.395Z,44.83
2023-04-23T11:32:44.073Z,44.89
2023-04-23T11:33:42.961Z,41.73
2023-04-23T11:34:42.975Z,45.61
2023-04-23T11:35:42.985Z,39.19
2023-04-23T11:36:42.973Z,42.70
2023-04-23T11:37:42.959Z,44.00
2023-04-23T11:38:42.939Z,35.19
2023-04-23T11:39:43.229Z,37.22
2023-04-23T11:40:42.963Z,38.65
2023-04-23T11:41:42.916Z,42.21
2023-04-23T11:42:42.941Z,42.61
2023-04-23T11:43:42.949Z,47.41
2023-04-23T11:44:42.941Z,50.75
2023-04-23T11:45:42.923Z,43.64
2023-04-23T11:46:42.879Z,47.17
2023-04-23T11:47:42.883Z,43.40
2023-04-23T11:48:42.880Z,49.48
2023-04-23T11:49:43.205Z,37.72
2023-04-23T11:50:42.893Z,41.59
2023-04-23T11:51:42.880Z,36.49
2023-04-23T11:52:42.871Z,38.69
2023-04-23T11:53:42.829Z,42.17
2023-04-23T11:54:42.854Z,42.39
2023-04-23T11:55:42.817Z,46.69
2023-04-23T11:56:42.814Z,46.31
2023-04-23T11:57:42.840Z,42.36
2023-04-23T11:58:42.840Z,47.61
2023-04-23T11:59:43.071Z,42.97
2023-04-23T12:00:42.801Z,48.03
2023-04-23T12:01:42.779Z,42.10
2023-04-23T12:02:42.870Z,41.53
2023-04-23T12:03:42.813Z,38.47
2023-04-23T12:04:42.766Z,40.43
2023-04-23T12:05:42.804Z,48.03
2023-04-23T12:06:42.766Z,43.37
2023-04-23T12:07:42.751Z,43.21
2023-04-23T12:08:42.724Z,45.16
2023-04-23T12:09:42.966Z,47.37
2023-04-23T12:10:42.717Z,46.46
2023-04-23T12:11:42.733Z,42.36
2023-04-23T12:12:42.728Z,46.72
2023-04-23T12:13:42.731Z,47.72
2023-04-23T12:14:42.735Z,44.36
2023-04-23T12:15:42.722Z,53.31
2023-04-23T12:16:42.701Z,40.88
2023-04-23T12:17:42.777Z,43.27
2023-04-23T12:18:42.694Z,44.93
2023-04-23T12:19:43.069Z,40.49
2023-04-23T12:20:42.719Z,45.50
2023-04-23T12:21:42.697Z,44.73
2023-04-23T12:22:42.700Z,50.09
2023-04-23T12:23:42.695Z,44.61
2023-04-23T12:24:42.706Z,42.81
2023-04-23T12:25:42.717Z,46.27
2023-04-23T12:26:42.724Z,43.00
2023-04-23T12:27:42.805Z,39.92
2023-04-23T12:28:42.707Z,49.17
2023-04-23T12:29:43.165Z,46.86
2023-04-23T12:30:42.699Z,47.47
2023-04-23T12:31:42.791Z,54.50
2023-04-23T12:32:42.698Z,47.42
2023-04-23T12:33:42.722Z,38.19
2023-04-23T12:34:43.040Z,47.80
2023-04-23T12:35:42.765Z,46.52
2023-04-23T12:36:42.706Z,47.57
2023-04-23T12:37:42.687Z,40.72
2023-04-23T12:38:42.713Z,38.13
2023-04-23T12:39:42.966Z,42.82
2023-04-23T12:40:42.716Z,41.63
2023-04-23T12:41:42.687Z,44.90
2023-04-23T12:42:42.674Z,46.11
2023-04-23T12:43:42.702Z,50.16
2023-04-23T12:44:42.743Z,47.61
2023-04-23T12:45:42.685Z,41.33
2023-04-23T12:46:42.716Z,50.02
2023-04-23T12:47:42.719Z,51.93
2023-04-23T12:48:42.724Z,44.47
2023-04-23T12:49:42.935Z,42.18
2023-04-23T12:50:42.679Z,42.60
2023-04-23T12:51:42.671Z,45.95
2023-04-23T12:52:42.661Z,43.46
2023-04-23T12:53:42.670Z,47.27